sensor_id;sensor_type;location;lat;lon;timestamp;temperature;humidity
24250;DHT22;12379;49.820;8.648;2022-07-23T00:01:17;23.80;95.90
24250;DHT22;12379;49.820;8.648;2022-07-23T00:03:43;23.80;95.90
24250;DHT22;12379;49.820;8.648;2022-07-23T00:06:08;23.70;96.10
24250;DHT22;12379;49.820;8.648;2022-07-23T00:08:34;23.70;96.20
24250;DHT22;12379;49.820;8.648;2022-07-23T00:11:00;23.70;96.40
24250;DHT22;12379;49.820;8.648;2022-07-23T00:13:26;23.70;96.50
24250;DHT22;12379;49.820;8.648;2022-07-23T00:15:52;23.70;96.70
24250;DHT22;12379;49.820;8.648;2022-07-23T00:18:18;23.70;96.60
24250;DHT22;12379;49.820;8.648;2022-07-23T00:20:44;23.70;96.80
24250;DHT22;12379;49.820;8.648;2022-07-23T00:23:09;23.60;97.00
24250;DHT22;12379;49.820;8.648;2022-07-23T00:25:35;23.60;97.10
24250;DHT22;12379;49.820;8.648;2022-07-23T00:28:01;23.50;97.40
24250;DHT22;12379;49.820;8.648;2022-07-23T00:30:27;23.50;97.70
24250;DHT22;12379;49.820;8.648;2022-07-23T00:32:57;23.40;98.10
24250;DHT22;12379;49.820;8.648;2022-07-23T00:35:24;23.30;98.20
24250;DHT22;12379;49.820;8.648;2022-07-23T00:37:50;23.30;98.50
24250;DHT22;12379;49.820;8.648;2022-07-23T00:40:16;23.20;98.90
24250;DHT22;12379;49.820;8.648;2022-07-23T00:42:42;23.20;99.90
24250;DHT22;12379;49.820;8.648;2022-07-23T00:45:08;23.20;99.90
24250;DHT22;12379;49.820;8.648;2022-07-23T00:47:34;23.20;99.90
24250;DHT22;12379;49.820;8.648;2022-07-23T00:50:01;23.00;99.90
24250;DHT22;12379;49.820;8.648;2022-07-23T00:52:27;23.00;99.90
24250;DHT22;12379;49.820;8.648;2022-07-23T00:54:53;22.90;99.90
24250;DHT22;12379;49.820;8.648;2022-07-23T00:57:19;22.70;99.90
24250;DHT22;12379;49.820;8.648;2022-07-23T00:59:44;22.80;99.90
24250;DHT22;12379;49.820;8.648;2022-07-23T01:02:10;22.80;99.90
24250;DHT22;12379;49.820;8.648;2022-07-23T01:04:36;22.70;99.90
24250;DHT22;12379;49.820;8.648;2022-07-23T01:07:02;22.70;99.90
24250;DHT22;12379;49.820;8.648;2022-07-23T01:09:27;22.60;99.90
24250;DHT22;12379;49.820;8.648;2022-07-23T01:11:54;22.60;99.90
24250;DHT22;12379;49.820;8.648;2022-07-23T01:14:20;22.60;99.90
24250;DHT22;12379;49.820;8.648;2022-07-23T01:16:48;22.60;99.90
24250;DHT22;12379;49.820;8.648;2022-07-23T01:19:14;22.70;99.90
24250;DHT22;12379;49.820;8.648;2022-07-23T01:21:44;22.70;99.90
24250;DHT22;12379;49.820;8.648;2022-07-23T01:24:11;22.70;99.90
24250;DHT22;12379;49.820;8.648;2022-07-23T01:26:39;22.70;99.90
24250;DHT22;12379;49.820;8.648;2022-07-23T01:29:05;22.60;99.90
24250;DHT22;12379;49.820;8.648;2022-07-23T01:31:31;22.60;99.90
24250;DHT22;12379;49.820;8.648;2022-07-23T01:33:57;22.60;99.90
24250;DHT22;12379;49.820;8.648;2022-07-23T01:36:23;22.60;99.90
24250;DHT22;12379;49.820;8.648;2022-07-23T01:38:48;22.60;99.90
24250;DHT22;12379;49.820;8.648;2022-07-23T01:41:14;22.60;99.90
24250;DHT22;12379;49.820;8.648;2022-07-23T01:43:40;22.50;99.90
24250;DHT22;12379;49.820;8.648;2022-07-23T01:46:05;22.50;99.90
24250;DHT22;12379;49.820;8.648;2022-07-23T01:48:31;22.40;99.90
24250;DHT22;12379;49.820;8.648;2022-07-23T01:50:56;22.30;99.90
24250;DHT22;12379;49.820;8.648;2022-07-23T01:53:22;22.30;99.90
24250;DHT22;12379;49.820;8.648;2022-07-23T01:55:47;22.30;99.90
24250;DHT22;12379;49.820;8.648;2022-07-23T01:58:13;22.30;99.90
24250;DHT22;12379;49.820;8.648;2022-07-23T02:00:39;22.20;99.90
24250;DHT22;12379;49.820;8.648;2022-07-23T02:03:04;22.20;99.90
24250;DHT22;12379;49.820;8.648;2022-07-23T02:05:30;22.20;99.90
24250;DHT22;12379;49.820;8.648;2022-07-23T02:07:57;22.10;99.90
24250;DHT22;12379;49.820;8.648;2022-07-23T02:10:23;22.20;99.90
24250;DHT22;12379;49.820;8.648;2022-07-23T02:12:49;22.10;99.90
24250;DHT22;12379;49.820;8.648;2022-07-23T02:15:15;22.10;99.90
24250;DHT22;12379;49.820;8.648;2022-07-23T02:17:41;22.10;99.90
24250;DHT22;12379;49.820;8.648;2022-07-23T02:20:07;22.00;99.90
24250;DHT22;12379;49.820;8.648;2022-07-23T02:22:34;22.00;99.90
24250;DHT22;12379;49.820;8.648;2022-07-23T02:24:59;22.00;99.90
24250;DHT22;12379;49.820;8.648;2022-07-23T02:27:25;22.00;99.90
24250;DHT22;12379;49.820;8.648;2022-07-23T02:29:51;22.00;99.90
24250;DHT22;12379;49.820;8.648;2022-07-23T02:32:16;21.90;99.90
24250;DHT22;12379;49.820;8.648;2022-07-23T02:34:42;21.90;99.90
24250;DHT22;12379;49.820;8.648;2022-07-23T02:37:08;21.90;99.90
24250;DHT22;12379;49.820;8.648;2022-07-23T02:39:34;21.90;99.90
24250;DHT22;12379;49.820;8.648;2022-07-23T02:42:00;21.90;99.90
24250;DHT22;12379;49.820;8.648;2022-07-23T02:44:26;21.90;99.90
24250;DHT22;12379;49.820;8.648;2022-07-23T02:46:51;21.90;99.90
24250;DHT22;12379;49.820;8.648;2022-07-23T02:49:17;21.80;99.90
24250;DHT22;12379;49.820;8.648;2022-07-23T02:51:42;21.70;99.90
24250;DHT22;12379;49.820;8.648;2022-07-23T02:54:08;21.60;99.90
24250;DHT22;12379;49.820;8.648;2022-07-23T02:56:33;21.60;99.90
24250;DHT22;12379;49.820;8.648;2022-07-23T02:58:59;21.50;99.90
24250;DHT22;12379;49.820;8.648;2022-07-23T03:01:25;21.50;99.90
24250;DHT22;12379;49.820;8.648;2022-07-23T03:03:51;21.40;99.90
24250;DHT22;12379;49.820;8.648;2022-07-23T03:06:17;21.40;99.90
24250;DHT22;12379;49.820;8.648;2022-07-23T03:08:42;21.30;99.90
24250;DHT22;12379;49.820;8.648;2022-07-23T03:11:08;21.30;99.90
24250;DHT22;12379;49.820;8.648;2022-07-23T03:13:37;21.40;99.90
24250;DHT22;12379;49.820;8.648;2022-07-23T03:16:03;21.30;99.90
24250;DHT22;12379;49.820;8.648;2022-07-23T03:18:29;21.30;99.90
24250;DHT22;12379;49.820;8.648;2022-07-23T03:20:55;21.20;99.90
24250;DHT22;12379;49.820;8.648;2022-07-23T03:23:20;21.20;99.90
24250;DHT22;12379;49.820;8.648;2022-07-23T03:25:46;21.20;99.90
24250;DHT22;12379;49.820;8.648;2022-07-23T03:28:14;21.20;99.90
24250;DHT22;12379;49.820;8.648;2022-07-23T03:30:41;21.20;99.90
24250;DHT22;12379;49.820;8.648;2022-07-23T03:33:07;21.10;99.90
24250;DHT22;12379;49.820;8.648;2022-07-23T03:35:33;21.10;99.90
24250;DHT22;12379;49.820;8.648;2022-07-23T03:37:58;21.10;99.90
24250;DHT22;12379;49.820;8.648;2022-07-23T03:40:24;21.00;99.90
24250;DHT22;12379;49.820;8.648;2022-07-23T03:42:49;21.00;99.90
24250;DHT22;12379;49.820;8.648;2022-07-23T03:45:15;21.00;99.90
24250;DHT22;12379;49.820;8.648;2022-07-23T03:47:41;21.00;99.90
24250;DHT22;12379;49.820;8.648;2022-07-23T03:50:07;21.00;99.90
24250;DHT22;12379;49.820;8.648;2022-07-23T03:52:32;20.90;99.90
24250;DHT22;12379;49.820;8.648;2022-07-23T03:54:58;20.90;99.90
24250;DHT22;12379;49.820;8.648;2022-07-23T03:57:23;20.90;99.90
24250;DHT22;12379;49.820;8.648;2022-07-23T03:59:49;20.90;99.90
24250;DHT22;12379;49.820;8.648;2022-07-23T04:02:15;20.90;99.90
24250;DHT22;12379;49.820;8.648;2022-07-23T04:04:40;20.80;99.90
24250;DHT22;12379;49.820;8.648;2022-07-23T04:07:06;20.80;99.90
24250;DHT22;12379;49.820;8.648;2022-07-23T04:09:33;20.90;99.90
24250;DHT22;12379;49.820;8.648;2022-07-23T04:11:59;20.80;99.90
24250;DHT22;12379;49.820;8.648;2022-07-23T04:14:24;20.70;99.90
24250;DHT22;12379;49.820;8.648;2022-07-23T04:16:50;20.60;99.90
24250;DHT22;12379;49.820;8.648;2022-07-23T04:19:15;20.60;99.90
24250;DHT22;12379;49.820;8.648;2022-07-23T04:21:41;20.60;99.90
24250;DHT22;12379;49.820;8.648;2022-07-23T04:24:07;20.50;99.90
24250;DHT22;12379;49.820;8.648;2022-07-23T04:26:32;20.60;99.90
24250;DHT22;12379;49.820;8.648;2022-07-23T04:28:58;20.60;99.90
24250;DHT22;12379;49.820;8.648;2022-07-23T04:31:23;20.70;99.90
24250;DHT22;12379;49.820;8.648;2022-07-23T04:33:49;20.70;99.90
24250;DHT22;12379;49.820;8.648;2022-07-23T04:36:15;20.80;99.90
24250;DHT22;12379;49.820;8.648;2022-07-23T04:38:40;20.80;99.90
24250;DHT22;12379;49.820;8.648;2022-07-23T04:41:06;20.90;99.90
24250;DHT22;12379;49.820;8.648;2022-07-23T04:43:31;20.90;99.90
24250;DHT22;12379;49.820;8.648;2022-07-23T04:45:57;20.90;99.90
24250;DHT22;12379;49.820;8.648;2022-07-23T04:48:23;21.00;99.90
24250;DHT22;12379;49.820;8.648;2022-07-23T04:50:48;21.00;99.90
24250;DHT22;12379;49.820;8.648;2022-07-23T04:53:14;20.90;99.90
24250;DHT22;12379;49.820;8.648;2022-07-23T04:55:39;20.90;99.90
24250;DHT22;12379;49.820;8.648;2022-07-23T04:58:05;20.90;99.90
24250;DHT22;12379;49.820;8.648;2022-07-23T05:00:31;20.90;99.90
24250;DHT22;12379;49.820;8.648;2022-07-23T05:02:56;20.90;99.90
24250;DHT22;12379;49.820;8.648;2022-07-23T05:05:22;20.90;99.90
24250;DHT22;12379;49.820;8.648;2022-07-23T05:07:47;20.90;99.90
24250;DHT22;12379;49.820;8.648;2022-07-23T05:10:13;20.90;99.90
24250;DHT22;12379;49.820;8.648;2022-07-23T05:12:38;20.90;99.90
24250;DHT22;12379;49.820;8.648;2022-07-23T05:15:04;20.90;99.90
24250;DHT22;12379;49.820;8.648;2022-07-23T05:17:30;20.90;99.90
24250;DHT22;12379;49.820;8.648;2022-07-23T05:19:55;20.80;99.90
24250;DHT22;12379;49.820;8.648;2022-07-23T05:22:21;20.80;99.90
24250;DHT22;12379;49.820;8.648;2022-07-23T05:24:46;20.80;99.90
24250;DHT22;12379;49.820;8.648;2022-07-23T05:27:12;20.80;99.90
24250;DHT22;12379;49.820;8.648;2022-07-23T05:29:38;20.80;99.90
24250;DHT22;12379;49.820;8.648;2022-07-23T05:32:03;20.80;99.90
24250;DHT22;12379;49.820;8.648;2022-07-23T05:34:30;20.70;99.90
24250;DHT22;12379;49.820;8.648;2022-07-23T05:36:56;20.80;99.90
24250;DHT22;12379;49.820;8.648;2022-07-23T05:39:21;20.70;99.90
24250;DHT22;12379;49.820;8.648;2022-07-23T05:41:47;20.80;99.90
24250;DHT22;12379;49.820;8.648;2022-07-23T05:44:12;20.80;99.90
24250;DHT22;12379;49.820;8.648;2022-07-23T05:46:38;20.90;99.90
24250;DHT22;12379;49.820;8.648;2022-07-23T05:49:04;20.90;99.90
24250;DHT22;12379;49.820;8.648;2022-07-23T05:51:29;20.90;99.90
24250;DHT22;12379;49.820;8.648;2022-07-23T05:53:55;21.00;99.90
24250;DHT22;12379;49.820;8.648;2022-07-23T05:56:20;21.00;99.90
24250;DHT22;12379;49.820;8.648;2022-07-23T05:58:46;20.90;99.90
24250;DHT22;12379;49.820;8.648;2022-07-23T06:01:12;20.90;99.90
24250;DHT22;12379;49.820;8.648;2022-07-23T06:03:38;21.00;99.90
24250;DHT22;12379;49.820;8.648;2022-07-23T06:06:05;21.00;99.90
24250;DHT22;12379;49.820;8.648;2022-07-23T06:08:30;21.00;99.90
24250;DHT22;12379;49.820;8.648;2022-07-23T06:10:56;21.00;99.90
24250;DHT22;12379;49.820;8.648;2022-07-23T06:13:22;21.10;99.90
24250;DHT22;12379;49.820;8.648;2022-07-23T06:15:47;21.10;99.90
24250;DHT22;12379;49.820;8.648;2022-07-23T06:18:14;21.10;99.90
24250;DHT22;12379;49.820;8.648;2022-07-23T06:20:40;21.20;99.90
24250;DHT22;12379;49.820;8.648;2022-07-23T06:23:05;21.10;99.90
24250;DHT22;12379;49.820;8.648;2022-07-23T06:25:31;21.20;99.90
24250;DHT22;12379;49.820;8.648;2022-07-23T06:27:56;21.30;99.90
24250;DHT22;12379;49.820;8.648;2022-07-23T06:30:22;21.30;99.90
24250;DHT22;12379;49.820;8.648;2022-07-23T06:32:48;21.30;99.90
24250;DHT22;12379;49.820;8.648;2022-07-23T06:35:14;21.30;99.90
24250;DHT22;12379;49.820;8.648;2022-07-23T06:37:40;21.60;99.90
24250;DHT22;12379;49.820;8.648;2022-07-23T06:40:06;22.70;99.90
24250;DHT22;12379;49.820;8.648;2022-07-23T06:42:32;24.00;99.90
24250;DHT22;12379;49.820;8.648;2022-07-23T06:45:00;25.10;99.90
24250;DHT22;12379;49.820;8.648;2022-07-23T06:47:25;25.70;99.90
24250;DHT22;12379;49.820;8.648;2022-07-23T06:49:51;26.30;99.90
24250;DHT22;12379;49.820;8.648;2022-07-23T06:52:16;26.50;99.90
24250;DHT22;12379;49.820;8.648;2022-07-23T06:54:42;26.60;99.90
24250;DHT22;12379;49.820;8.648;2022-07-23T06:57:08;26.80;99.90
24250;DHT22;12379;49.820;8.648;2022-07-23T06:59:33;26.90;99.00
24250;DHT22;12379;49.820;8.648;2022-07-23T07:02:02;26.70;99.10
24250;DHT22;12379;49.820;8.648;2022-07-23T07:04:28;26.80;99.10
24250;DHT22;12379;49.820;8.648;2022-07-23T07:06:54;27.20;99.00
24250;DHT22;12379;49.820;8.648;2022-07-23T07:09:20;27.40;97.70
24250;DHT22;12379;49.820;8.648;2022-07-23T07:11:49;26.70;98.00
24250;DHT22;12379;49.820;8.648;2022-07-23T07:14:19;26.10;99.10
24250;DHT22;12379;49.820;8.648;2022-07-23T07:16:44;25.60;99.90
24250;DHT22;12379;49.820;8.648;2022-07-23T07:19:10;25.50;99.90
24250;DHT22;12379;49.820;8.648;2022-07-23T07:21:36;25.50;99.90
24250;DHT22;12379;49.820;8.648;2022-07-23T07:24:02;25.90;99.90
24250;DHT22;12379;49.820;8.648;2022-07-23T07:26:27;26.50;99.50
24250;DHT22;12379;49.820;8.648;2022-07-23T07:28:59;26.70;98.60
24250;DHT22;12379;49.820;8.648;2022-07-23T07:31:24;27.10;98.30
24250;DHT22;12379;49.820;8.648;2022-07-23T07:33:50;27.60;97.60
24250;DHT22;12379;49.820;8.648;2022-07-23T07:36:16;27.80;96.90
24250;DHT22;12379;49.820;8.648;2022-07-23T07:38:45;27.50;96.50
24250;DHT22;12379;49.820;8.648;2022-07-23T07:41:10;27.40;96.70
24250;DHT22;12379;49.820;8.648;2022-07-23T07:43:39;27.40;96.50
24250;DHT22;12379;49.820;8.648;2022-07-23T07:46:05;26.90;96.60
24250;DHT22;12379;49.820;8.648;2022-07-23T07:48:36;26.60;97.10
24250;DHT22;12379;49.820;8.648;2022-07-23T07:51:02;26.70;96.70
24250;DHT22;12379;49.820;8.648;2022-07-23T07:53:28;27.00;96.90
24250;DHT22;12379;49.820;8.648;2022-07-23T07:55:54;26.90;95.90
24250;DHT22;12379;49.820;8.648;2022-07-23T07:58:20;26.50;96.30
24250;DHT22;12379;49.820;8.648;2022-07-23T08:00:46;25.60;97.70
24250;DHT22;12379;49.820;8.648;2022-07-23T08:03:12;25.00;98.40
24250;DHT22;12379;49.820;8.648;2022-07-23T08:05:37;24.60;99.20
24250;DHT22;12379;49.820;8.648;2022-07-23T08:08:03;24.40;99.50
24250;DHT22;12379;49.820;8.648;2022-07-23T08:10:30;24.20;99.90
24250;DHT22;12379;49.820;8.648;2022-07-23T08:12:57;24.10;99.90
24250;DHT22;12379;49.820;8.648;2022-07-23T08:15:25;24.00;99.90
24250;DHT22;12379;49.820;8.648;2022-07-23T08:17:51;23.90;99.90
24250;DHT22;12379;49.820;8.648;2022-07-23T08:20:18;23.80;99.90
24250;DHT22;12379;49.820;8.648;2022-07-23T08:25:24;23.60;99.90
24250;DHT22;12379;49.820;8.648;2022-07-23T08:27:51;23.70;99.90
24250;DHT22;12379;49.820;8.648;2022-07-23T08:30:17;24.10;99.90
24250;DHT22;12379;49.820;8.648;2022-07-23T08:35:22;24.70;99.90
24250;DHT22;12379;49.820;8.648;2022-07-23T08:37:48;25.20;99.90
24250;DHT22;12379;49.820;8.648;2022-07-23T08:40:16;26.00;99.10
24250;DHT22;12379;49.820;8.648;2022-07-23T08:42:44;26.30;98.50
24250;DHT22;12379;49.820;8.648;2022-07-23T08:45:44;26.60;97.10
24250;DHT22;12379;49.820;8.648;2022-07-23T08:48:20;26.30;97.50
24250;DHT22;12379;49.820;8.648;2022-07-23T08:50:57;26.40;97.00
24250;DHT22;12379;49.820;8.648;2022-07-23T08:53:29;26.80;96.10
24250;DHT22;12379;49.820;8.648;2022-07-23T08:55:59;27.10;95.30
24250;DHT22;12379;49.820;8.648;2022-07-23T08:58:27;27.40;95.70
24250;DHT22;12379;49.820;8.648;2022-07-23T09:00:52;28.10;94.20
24250;DHT22;12379;49.820;8.648;2022-07-23T09:03:23;28.20;93.40
24250;DHT22;12379;49.820;8.648;2022-07-23T09:05:50;28.20;92.80
24250;DHT22;12379;49.820;8.648;2022-07-23T09:08:21;27.80;92.90
24250;DHT22;12379;49.820;8.648;2022-07-23T09:10:53;27.50;93.60
24250;DHT22;12379;49.820;8.648;2022-07-23T09:13:26;27.60;93.10
24250;DHT22;12379;49.820;8.648;2022-07-23T09:15:54;27.80;92.90
24250;DHT22;12379;49.820;8.648;2022-07-23T09:18:34;27.90;92.60
24250;DHT22;12379;49.820;8.648;2022-07-23T09:21:15;28.20;93.20
24250;DHT22;12379;49.820;8.648;2022-07-23T09:23:41;28.60;92.40
24250;DHT22;12379;49.820;8.648;2022-07-23T09:26:34;29.00;91.80
24250;DHT22;12379;49.820;8.648;2022-07-23T09:29:10;29.60;90.70
24250;DHT22;12379;49.820;8.648;2022-07-23T09:31:51;29.80;88.40
24250;DHT22;12379;49.820;8.648;2022-07-23T09:36:48;29.50;89.10
24250;DHT22;12379;49.820;8.648;2022-07-23T09:39:15;29.40;88.10
24250;DHT22;12379;49.820;8.648;2022-07-23T09:41:47;29.40;89.00
24250;DHT22;12379;49.820;8.648;2022-07-23T09:44:18;29.40;88.40
24250;DHT22;12379;49.820;8.648;2022-07-23T09:46:45;29.50;87.50
24250;DHT22;12379;49.820;8.648;2022-07-23T09:49:17;29.70;86.80
24250;DHT22;12379;49.820;8.648;2022-07-23T09:51:54;29.60;87.80
24250;DHT22;12379;49.820;8.648;2022-07-23T09:57:08;29.00;86.40
24250;DHT22;12379;49.820;8.648;2022-07-23T09:59:39;28.40;89.90
24250;DHT22;12379;49.820;8.648;2022-07-23T10:02:06;28.80;88.70
24250;DHT22;12379;49.820;8.648;2022-07-23T10:04:33;28.60;88.70
24250;DHT22;12379;49.820;8.648;2022-07-23T10:07:00;28.70;88.90
24250;DHT22;12379;49.820;8.648;2022-07-23T10:09:32;29.00;88.10
24250;DHT22;12379;49.820;8.648;2022-07-23T10:12:00;29.30;86.30
24250;DHT22;12379;49.820;8.648;2022-07-23T10:14:44;29.50;85.70
24250;DHT22;12379;49.820;8.648;2022-07-23T10:17:10;29.30;86.50
24250;DHT22;12379;49.820;8.648;2022-07-23T10:19:36;29.10;86.50
24250;DHT22;12379;49.820;8.648;2022-07-23T10:22:09;29.00;86.70
24250;DHT22;12379;49.820;8.648;2022-07-23T10:38:59;29.00;86.40
24250;DHT22;12379;49.820;8.648;2022-07-23T10:41:51;29.00;85.20
24250;DHT22;12379;49.820;8.648;2022-07-23T10:44:19;28.50;85.50
24250;DHT22;12379;49.820;8.648;2022-07-23T10:49:27;28.70;86.10
24250;DHT22;12379;49.820;8.648;2022-07-23T10:52:19;28.90;85.30
24250;DHT22;12379;49.820;8.648;2022-07-23T10:57:28;29.20;83.30
24250;DHT22;12379;49.820;8.648;2022-07-23T11:02:36;28.90;85.10
24250;DHT22;12379;49.820;8.648;2022-07-23T11:05:08;28.90;84.90
24250;DHT22;12379;49.820;8.648;2022-07-23T11:07:35;28.80;83.50
24250;DHT22;12379;49.820;8.648;2022-07-23T11:10:00;29.00;85.30
24250;DHT22;12379;49.820;8.648;2022-07-23T11:15:13;28.60;83.50
24250;DHT22;12379;49.820;8.648;2022-07-23T11:17:59;28.40;85.20
24250;DHT22;12379;49.820;8.648;2022-07-23T11:20:26;28.50;85.50
24250;DHT22;12379;49.820;8.648;2022-07-23T11:22:55;28.30;85.10
24250;DHT22;12379;49.820;8.648;2022-07-23T11:27:48;28.00;86.10
24250;DHT22;12379;49.820;8.648;2022-07-23T11:32:54;28.20;85.30
24250;DHT22;12379;49.820;8.648;2022-07-23T11:35:41;28.00;84.90
24250;DHT22;12379;49.820;8.648;2022-07-23T11:40:34;27.90;87.70
24250;DHT22;12379;49.820;8.648;2022-07-23T11:43:08;27.90;85.90
24250;DHT22;12379;49.820;8.648;2022-07-23T11:45:38;28.10;84.60
24250;DHT22;12379;49.820;8.648;2022-07-23T11:48:06;28.20;84.60
24250;DHT22;12379;49.820;8.648;2022-07-23T11:50:32;28.30;83.30
24250;DHT22;12379;49.820;8.648;2022-07-23T11:52:58;28.10;82.90
24250;DHT22;12379;49.820;8.648;2022-07-23T11:55:24;28.00;83.30
24250;DHT22;12379;49.820;8.648;2022-07-23T11:57:52;28.40;82.80
24250;DHT22;12379;49.820;8.648;2022-07-23T12:00:23;28.70;81.60
24250;DHT22;12379;49.820;8.648;2022-07-23T12:02:55;28.70;80.00
24250;DHT22;12379;49.820;8.648;2022-07-23T12:05:28;28.70;80.80
24250;DHT22;12379;49.820;8.648;2022-07-23T12:08:01;28.80;81.10
24250;DHT22;12379;49.820;8.648;2022-07-23T12:10:45;28.80;80.10
24250;DHT22;12379;49.820;8.648;2022-07-23T12:13:15;29.10;81.40
24250;DHT22;12379;49.820;8.648;2022-07-23T12:15:49;29.30;78.80
24250;DHT22;12379;49.820;8.648;2022-07-23T12:18:24;29.30;78.90
24250;DHT22;12379;49.820;8.648;2022-07-23T12:21:03;29.40;79.30
24250;DHT22;12379;49.820;8.648;2022-07-23T12:23:38;29.50;78.90
24250;DHT22;12379;49.820;8.648;2022-07-23T12:26:08;29.10;78.20
24250;DHT22;12379;49.820;8.648;2022-07-23T12:28:39;29.00;78.70
24250;DHT22;12379;49.820;8.648;2022-07-23T12:31:10;28.70;79.70
24250;DHT22;12379;49.820;8.648;2022-07-23T12:33:45;28.70;80.90
24250;DHT22;12379;49.820;8.648;2022-07-23T12:36:11;28.70;79.80
24250;DHT22;12379;49.820;8.648;2022-07-23T12:38:43;28.70;79.50
24250;DHT22;12379;49.820;8.648;2022-07-23T12:41:26;28.80;78.90
24250;DHT22;12379;49.820;8.648;2022-07-23T12:50:53;29.50;76.90
24250;DHT22;12379;49.820;8.648;2022-07-23T12:53:52;29.70;73.20
24250;DHT22;12379;49.820;8.648;2022-07-23T12:56:33;29.80;71.80
24250;DHT22;12379;49.820;8.648;2022-07-23T12:59:06;29.90;72.20
24250;DHT22;12379;49.820;8.648;2022-07-23T13:01:34;29.90;71.70
24250;DHT22;12379;49.820;8.648;2022-07-23T13:04:04;30.00;71.10
24250;DHT22;12379;49.820;8.648;2022-07-23T13:06:38;30.10;70.90
24250;DHT22;12379;49.820;8.648;2022-07-23T13:09:09;30.30;70.50
24250;DHT22;12379;49.820;8.648;2022-07-23T13:11:35;30.40;70.10
24250;DHT22;12379;49.820;8.648;2022-07-23T13:14:07;30.50;70.50
24250;DHT22;12379;49.820;8.648;2022-07-23T13:16:36;30.60;71.50
24250;DHT22;12379;49.820;8.648;2022-07-23T13:19:05;30.70;70.60
24250;DHT22;12379;49.820;8.648;2022-07-23T13:21:31;30.70;70.00
24250;DHT22;12379;49.820;8.648;2022-07-23T13:24:02;31.00;69.00
24250;DHT22;12379;49.820;8.648;2022-07-23T13:26:28;30.90;68.40
24250;DHT22;12379;49.820;8.648;2022-07-23T13:28:54;30.90;67.60
24250;DHT22;12379;49.820;8.648;2022-07-23T13:31:21;30.70;67.70
24250;DHT22;12379;49.820;8.648;2022-07-23T13:33:46;30.50;67.30
24250;DHT22;12379;49.820;8.648;2022-07-23T13:36:21;30.20;66.00
24250;DHT22;12379;49.820;8.648;2022-07-23T13:38:52;29.90;67.30
24250;DHT22;12379;49.820;8.648;2022-07-23T13:41:21;29.70;67.30
24250;DHT22;12379;49.820;8.648;2022-07-23T13:43:47;29.70;68.60
24250;DHT22;12379;49.820;8.648;2022-07-23T13:46:16;29.70;69.40
24250;DHT22;12379;49.820;8.648;2022-07-23T13:48:44;30.00;68.00
24250;DHT22;12379;49.820;8.648;2022-07-23T13:51:20;30.20;67.70
24250;DHT22;12379;49.820;8.648;2022-07-23T13:53:50;30.30;67.00
24250;DHT22;12379;49.820;8.648;2022-07-23T13:56:16;30.30;66.00
24250;DHT22;12379;49.820;8.648;2022-07-23T13:58:41;30.30;66.20
24250;DHT22;12379;49.820;8.648;2022-07-23T14:01:09;30.40;66.00
24250;DHT22;12379;49.820;8.648;2022-07-23T14:03:40;30.50;65.60
24250;DHT22;12379;49.820;8.648;2022-07-23T14:06:09;30.40;64.80
24250;DHT22;12379;49.820;8.648;2022-07-23T14:08:37;30.50;65.10
24250;DHT22;12379;49.820;8.648;2022-07-23T14:11:41;30.30;64.60
24250;DHT22;12379;49.820;8.648;2022-07-23T14:14:12;30.20;65.90
24250;DHT22;12379;49.820;8.648;2022-07-23T14:16:49;30.20;66.20
24250;DHT22;12379;49.820;8.648;2022-07-23T14:19:24;30.40;64.40
24250;DHT22;12379;49.820;8.648;2022-07-23T14:22:02;30.40;65.10
24250;DHT22;12379;49.820;8.648;2022-07-23T14:24:27;30.30;66.30
24250;DHT22;12379;49.820;8.648;2022-07-23T14:26:53;30.50;66.30
24250;DHT22;12379;49.820;8.648;2022-07-23T14:29:19;30.50;64.50
24250;DHT22;12379;49.820;8.648;2022-07-23T14:31:48;30.70;64.60
24250;DHT22;12379;49.820;8.648;2022-07-23T14:34:13;30.60;64.30
24250;DHT22;12379;49.820;8.648;2022-07-23T14:36:43;30.50;64.40
24250;DHT22;12379;49.820;8.648;2022-07-23T14:39:11;30.50;65.70
24250;DHT22;12379;49.820;8.648;2022-07-23T14:41:40;30.60;64.80
24250;DHT22;12379;49.820;8.648;2022-07-23T14:44:06;30.60;63.20
24250;DHT22;12379;49.820;8.648;2022-07-23T14:46:34;30.50;63.30
24250;DHT22;12379;49.820;8.648;2022-07-23T14:49:00;30.50;63.90
24250;DHT22;12379;49.820;8.648;2022-07-23T14:51:26;30.50;64.00
24250;DHT22;12379;49.820;8.648;2022-07-23T14:53:52;30.70;62.00
24250;DHT22;12379;49.820;8.648;2022-07-23T14:56:21;30.60;61.80
24250;DHT22;12379;49.820;8.648;2022-07-23T14:58:47;30.70;61.60
24250;DHT22;12379;49.820;8.648;2022-07-23T15:01:12;30.70;59.80
24250;DHT22;12379;49.820;8.648;2022-07-23T15:03:38;30.50;61.40
24250;DHT22;12379;49.820;8.648;2022-07-23T15:06:04;30.60;61.00
24250;DHT22;12379;49.820;8.648;2022-07-23T15:08:30;30.80;61.10
24250;DHT22;12379;49.820;8.648;2022-07-23T15:10:56;30.80;60.00
24250;DHT22;12379;49.820;8.648;2022-07-23T15:13:22;30.60;60.00
24250;DHT22;12379;49.820;8.648;2022-07-23T15:15:47;30.50;60.80
24250;DHT22;12379;49.820;8.648;2022-07-23T15:18:13;30.60;60.70
24250;DHT22;12379;49.820;8.648;2022-07-23T15:20:39;30.60;60.70
24250;DHT22;12379;49.820;8.648;2022-07-23T15:23:05;30.60;61.20
24250;DHT22;12379;49.820;8.648;2022-07-23T15:25:31;30.80;61.10
24250;DHT22;12379;49.820;8.648;2022-07-23T15:27:58;30.90;60.30
24250;DHT22;12379;49.820;8.648;2022-07-23T15:30:25;30.60;59.20
24250;DHT22;12379;49.820;8.648;2022-07-23T15:32:50;30.30;59.60
24250;DHT22;12379;49.820;8.648;2022-07-23T15:35:16;30.30;60.00
24250;DHT22;12379;49.820;8.648;2022-07-23T15:37:42;30.40;59.80
24250;DHT22;12379;49.820;8.648;2022-07-23T15:40:08;30.50;60.20
24250;DHT22;12379;49.820;8.648;2022-07-23T15:42:35;30.60;60.30
24250;DHT22;12379;49.820;8.648;2022-07-23T15:45:01;30.70;59.40
24250;DHT22;12379;49.820;8.648;2022-07-23T15:47:27;30.70;59.90
24250;DHT22;12379;49.820;8.648;2022-07-23T15:49:53;30.80;58.70
24250;DHT22;12379;49.820;8.648;2022-07-23T15:52:18;30.70;59.10
24250;DHT22;12379;49.820;8.648;2022-07-23T15:54:44;30.80;59.30
24250;DHT22;12379;49.820;8.648;2022-07-23T15:57:10;30.70;58.60
24250;DHT22;12379;49.820;8.648;2022-07-23T15:59:35;30.70;58.80
24250;DHT22;12379;49.820;8.648;2022-07-23T16:02:01;30.60;59.00
24250;DHT22;12379;49.820;8.648;2022-07-23T16:04:27;30.50;59.80
24250;DHT22;12379;49.820;8.648;2022-07-23T16:06:53;30.30;59.80
24250;DHT22;12379;49.820;8.648;2022-07-23T16:09:19;30.10;60.50
24250;DHT22;12379;49.820;8.648;2022-07-23T16:11:44;30.10;60.70
24250;DHT22;12379;49.820;8.648;2022-07-23T16:14:10;30.00;61.00
24250;DHT22;12379;49.820;8.648;2022-07-23T16:16:35;29.90;62.00
24250;DHT22;12379;49.820;8.648;2022-07-23T16:19:01;29.80;62.70
24250;DHT22;12379;49.820;8.648;2022-07-23T16:21:27;29.70;62.80
24250;DHT22;12379;49.820;8.648;2022-07-23T16:23:53;29.70;62.40